sensor_id;sensor_type;location;lat;lon;timestamp;P1;durP1;ratioP1;P2;durP2;ratioP2
40729;SDS011;26418;50.070;8.436;2022-11-27T00:01:12;19.88;;;10.48;;
40729;SDS011;26418;50.070;8.436;2022-11-27T00:03:39;19.25;;;10.80;;
40729;SDS011;26418;50.070;8.436;2022-11-27T00:06:05;15.15;;;9.50;;
40729;SDS011;26418;50.070;8.436;2022-11-27T00:08:31;17.55;;;10.10;;
40729;SDS011;26418;50.070;8.436;2022-11-27T00:10:56;15.52;;;10.10;;
40729;SDS011;26418;50.070;8.436;2022-11-27T00:13:27;20.40;;;9.98;;
40729;SDS011;26418;50.070;8.436;2022-11-27T00:15:55;19.15;;;11.23;;
40729;SDS011;26418;50.070;8.436;2022-11-27T00:18:22;19.83;;;12.00;;
40729;SDS011;26418;50.070;8.436;2022-11-27T00:20:47;20.83;;;12.23;;
40729;SDS011;26418;50.070;8.436;2022-11-27T00:23:12;21.90;;;12.23;;
40729;SDS011;26418;50.070;8.436;2022-11-27T00:25:38;22.35;;;13.32;;
40729;SDS011;26418;50.070;8.436;2022-11-27T00:28:03;21.25;;;13.15;;
40729;SDS011;26418;50.070;8.436;2022-11-27T00:30:29;21.58;;;12.82;;
40729;SDS011;26418;50.070;8.436;2022-11-27T00:32:54;15.40;;;10.85;;
40729;SDS011;26418;50.070;8.436;2022-11-27T00:35:19;24.60;;;11.20;;
40729;SDS011;26418;50.070;8.436;2022-11-27T00:37:45;16.15;;;10.75;;
40729;SDS011;26418;50.070;8.436;2022-11-27T00:40:10;21.27;;;11.43;;
40729;SDS011;26418;50.070;8.436;2022-11-27T00:42:36;22.23;;;12.95;;
40729;SDS011;26418;50.070;8.436;2022-11-27T00:45:01;22.52;;;12.82;;
40729;SDS011;26418;50.070;8.436;2022-11-27T00:47:27;22.85;;;13.30;;
40729;SDS011;26418;50.070;8.436;2022-11-27T00:49:53;20.55;;;11.93;;
40729;SDS011;26418;50.070;8.436;2022-11-27T00:52:18;21.33;;;12.40;;
40729;SDS011;26418;50.070;8.436;2022-11-27T00:54:43;17.58;;;10.85;;
40729;SDS011;26418;50.070;8.436;2022-11-27T00:57:08;16.52;;;9.95;;
40729;SDS011;26418;50.070;8.436;2022-11-27T00:59:34;18.60;;;10.82;;
40729;SDS011;26418;50.070;8.436;2022-11-27T01:01:59;17.83;;;10.85;;
40729;SDS011;26418;50.070;8.436;2022-11-27T01:04:24;15.75;;;10.45;;
40729;SDS011;26418;50.070;8.436;2022-11-27T01:06:50;22.35;;;12.80;;
40729;SDS011;26418;50.070;8.436;2022-11-27T01:09:15;22.08;;;14.15;;
40729;SDS011;26418;50.070;8.436;2022-11-27T01:11:41;25.00;;;13.30;;
40729;SDS011;26418;50.070;8.436;2022-11-27T01:14:09;25.17;;;13.00;;
40729;SDS011;26418;50.070;8.436;2022-11-27T01:16:38;17.60;;;11.05;;
40729;SDS011;26418;50.070;8.436;2022-11-27T01:19:03;19.50;;;10.82;;
40729;SDS011;26418;50.070;8.436;2022-11-27T01:21:30;17.15;;;9.45;;
40729;SDS011;26418;50.070;8.436;2022-11-27T01:23:57;17.85;;;9.95;;
40729;SDS011;26418;50.070;8.436;2022-11-27T01:26:23;24.27;;;14.02;;
40729;SDS011;26418;50.070;8.436;2022-11-27T01:28:52;24.30;;;12.98;;
40729;SDS011;26418;50.070;8.436;2022-11-27T01:31:21;28.88;;;14.80;;
40729;SDS011;26418;50.070;8.436;2022-11-27T01:33:51;24.30;;;13.55;;
40729;SDS011;26418;50.070;8.436;2022-11-27T01:36:17;22.48;;;13.35;;
40729;SDS011;26418;50.070;8.436;2022-11-27T01:38:43;26.73;;;15.10;;
40729;SDS011;26418;50.070;8.436;2022-11-27T01:41:12;20.77;;;13.00;;
40729;SDS011;26418;50.070;8.436;2022-11-27T01:43:41;22.60;;;13.15;;
40729;SDS011;26418;50.070;8.436;2022-11-27T01:46:27;24.77;;;15.05;;
40729;SDS011;26418;50.070;8.436;2022-11-27T01:49:02;28.05;;;14.88;;
40729;SDS011;26418;50.070;8.436;2022-11-27T01:51:29;25.20;;;13.43;;
40729;SDS011;26418;50.070;8.436;2022-11-27T01:53:55;30.50;;;13.70;;
40729;SDS011;26418;50.070;8.436;2022-11-27T01:56:21;25.50;;;13.75;;
40729;SDS011;26418;50.070;8.436;2022-11-27T01:58:48;26.42;;;14.48;;
40729;SDS011;26418;50.070;8.436;2022-11-27T02:01:15;18.55;;;12.45;;
40729;SDS011;26418;50.070;8.436;2022-11-27T02:03:40;21.13;;;12.55;;
40729;SDS011;26418;50.070;8.436;2022-11-27T02:06:07;18.67;;;10.40;;
40729;SDS011;26418;50.070;8.436;2022-11-27T02:08:36;18.88;;;10.10;;
40729;SDS011;26418;50.070;8.436;2022-11-27T02:11:08;15.88;;;10.93;;
40729;SDS011;26418;50.070;8.436;2022-11-27T02:13:44;21.50;;;11.98;;
40729;SDS011;26418;50.070;8.436;2022-11-27T02:18:56;23.75;;;12.85;;
40729;SDS011;26418;50.070;8.436;2022-11-27T02:21:46;23.92;;;12.95;;
40729;SDS011;26418;50.070;8.436;2022-11-27T02:30:05;22.73;;;12.13;;
40729;SDS011;26418;50.070;8.436;2022-11-27T02:32:37;18.80;;;11.20;;
40729;SDS011;26418;50.070;8.436;2022-11-27T02:35:46;18.98;;;10.13;;
40729;SDS011;26418;50.070;8.436;2022-11-27T02:38:31;24.20;;;11.13;;
40729;SDS011;26418;50.070;8.436;2022-11-27T02:43:37;17.75;;;9.43;;
40729;SDS011;26418;50.070;8.436;2022-11-27T02:46:07;15.88;;;7.75;;
40729;SDS011;26418;50.070;8.436;2022-11-27T02:48:36;14.75;;;8.00;;
40729;SDS011;26418;50.070;8.436;2022-11-27T02:53:34;16.65;;;9.02;;
40729;SDS011;26418;50.070;8.436;2022-11-27T02:56:07;14.02;;;7.80;;
40729;SDS011;26418;50.070;8.436;2022-11-27T02:58:36;14.23;;;7.97;;
40729;SDS011;26418;50.070;8.436;2022-11-27T03:01:03;14.02;;;7.88;;
40729;SDS011;26418;50.070;8.436;2022-11-27T03:03:33;17.55;;;8.40;;
40729;SDS011;26418;50.070;8.436;2022-11-27T03:06:04;12.33;;;8.20;;
40729;SDS011;26418;50.070;8.436;2022-11-27T03:08:37;18.05;;;7.78;;
40729;SDS011;26418;50.070;8.436;2022-11-27T03:11:10;13.50;;;8.75;;
40729;SDS011;26418;50.070;8.436;2022-11-27T03:13:49;13.27;;;7.22;;
40729;SDS011;26418;50.070;8.436;2022-11-27T03:21:27;13.85;;;6.75;;
40729;SDS011;26418;50.070;8.436;2022-11-27T03:23:56;16.50;;;6.85;;
40729;SDS011;26418;50.070;8.436;2022-11-27T03:26:23;19.15;;;7.70;;
40729;SDS011;26418;50.070;8.436;2022-11-27T03:28:49;14.80;;;7.55;;
40729;SDS011;26418;50.070;8.436;2022-11-27T03:31:16;12.77;;;7.63;;
40729;SDS011;26418;50.070;8.436;2022-11-27T03:33:43;13.75;;;7.78;;
40729;SDS011;26418;50.070;8.436;2022-11-27T03:36:13;12.77;;;7.07;;
40729;SDS011;26418;50.070;8.436;2022-11-27T03:38:43;15.68;;;7.53;;
40729;SDS011;26418;50.070;8.436;2022-11-27T03:41:23;18.05;;;7.30;;
40729;SDS011;26418;50.070;8.436;2022-11-27T03:44:15;14.38;;;7.63;;
40729;SDS011;26418;50.070;8.436;2022-11-27T03:50:00;15.20;;;7.00;;
40729;SDS011;26418;50.070;8.436;2022-11-27T03:52:43;15.60;;;7.80;;
40729;SDS011;26418;50.070;8.436;2022-11-27T03:55:19;12.57;;;7.15;;
40729;SDS011;26418;50.070;8.436;2022-11-27T03:58:20;16.55;;;7.95;;
40729;SDS011;26418;50.070;8.436;2022-11-27T04:00:53;14.60;;;7.45;;
40729;SDS011;26418;50.070;8.436;2022-11-27T04:03:25;14.75;;;8.02;;
40729;SDS011;26418;50.070;8.436;2022-11-27T04:05:53;11.60;;;6.80;;
40729;SDS011;26418;50.070;8.436;2022-11-27T04:08:19;13.65;;;8.13;;
40729;SDS011;26418;50.070;8.436;2022-11-27T04:10:45;21.10;;;8.82;;
40729;SDS011;26418;50.070;8.436;2022-11-27T04:13:11;16.48;;;8.70;;
40729;SDS011;26418;50.070;8.436;2022-11-27T04:15:37;14.43;;;7.90;;
40729;SDS011;26418;50.070;8.436;2022-11-27T04:18:03;16.52;;;7.40;;
40729;SDS011;26418;50.070;8.436;2022-11-27T04:20:28;16.08;;;8.93;;
40729;SDS011;26418;50.070;8.436;2022-11-27T04:22:54;18.55;;;8.90;;
40729;SDS011;26418;50.070;8.436;2022-11-27T04:25:20;11.80;;;7.55;;
40729;SDS011;26418;50.070;8.436;2022-11-27T04:27:46;18.38;;;8.50;;
40729;SDS011;26418;50.070;8.436;2022-11-27T04:30:12;18.02;;;9.43;;
40729;SDS011;26418;50.070;8.436;2022-11-27T04:32:38;16.67;;;9.82;;
40729;SDS011;26418;50.070;8.436;2022-11-27T04:35:04;17.25;;;9.18;;
40729;SDS011;26418;50.070;8.436;2022-11-27T04:37:29;15.27;;;9.55;;
40729;SDS011;26418;50.070;8.436;2022-11-27T04:39:55;16.23;;;9.30;;
40729;SDS011;26418;50.070;8.436;2022-11-27T04:42:20;24.98;;;10.60;;
40729;SDS011;26418;50.070;8.436;2022-11-27T04:44:46;22.15;;;12.13;;
40729;SDS011;26418;50.070;8.436;2022-11-27T04:47:12;20.63;;;11.02;;
40729;SDS011;26418;50.070;8.436;2022-11-27T04:49:37;25.27;;;11.23;;
40729;SDS011;26418;50.070;8.436;2022-11-27T04:52:03;24.77;;;13.20;;
40729;SDS011;26418;50.070;8.436;2022-11-27T04:54:29;24.27;;;12.00;;
40729;SDS011;26418;50.070;8.436;2022-11-27T04:56:54;23.45;;;12.05;;
40729;SDS011;26418;50.070;8.436;2022-11-27T04:59:20;25.20;;;10.48;;
40729;SDS011;26418;50.070;8.436;2022-11-27T05:01:46;22.30;;;11.13;;
40729;SDS011;26418;50.070;8.436;2022-11-27T05:04:12;22.33;;;11.18;;
40729;SDS011;26418;50.070;8.436;2022-11-27T05:06:37;29.42;;;12.75;;
40729;SDS011;26418;50.070;8.436;2022-11-27T05:09:03;20.92;;;10.70;;
40729;SDS011;26418;50.070;8.436;2022-11-27T05:11:29;24.52;;;11.05;;
40729;SDS011;26418;50.070;8.436;2022-11-27T05:13:55;26.23;;;12.20;;
40729;SDS011;26418;50.070;8.436;2022-11-27T05:16:41;27.73;;;12.93;;
40729;SDS011;26418;50.070;8.436;2022-11-27T05:19:11;23.92;;;12.35;;
40729;SDS011;26418;50.070;8.436;2022-11-27T05:21:38;24.40;;;11.52;;
40729;SDS011;26418;50.070;8.436;2022-11-27T05:24:04;26.75;;;11.80;;
40729;SDS011;26418;50.070;8.436;2022-11-27T05:26:30;30.50;;;11.48;;
40729;SDS011;26418;50.070;8.436;2022-11-27T05:28:56;27.38;;;12.45;;
40729;SDS011;26418;50.070;8.436;2022-11-27T05:31:22;25.70;;;11.82;;
40729;SDS011;26418;50.070;8.436;2022-11-27T05:33:48;24.60;;;13.07;;
40729;SDS011;26418;50.070;8.436;2022-11-27T05:36:13;25.90;;;12.02;;
40729;SDS011;26418;50.070;8.436;2022-11-27T05:38:39;29.27;;;12.52;;
40729;SDS011;26418;50.070;8.436;2022-11-27T05:41:05;24.88;;;12.73;;
40729;SDS011;26418;50.070;8.436;2022-11-27T05:43:30;24.52;;;11.95;;
40729;SDS011;26418;50.070;8.436;2022-11-27T05:45:56;25.95;;;13.05;;
40729;SDS011;26418;50.070;8.436;2022-11-27T05:48:21;21.70;;;11.82;;
40729;SDS011;26418;50.070;8.436;2022-11-27T05:50:47;23.20;;;11.45;;
40729;SDS011;26418;50.070;8.436;2022-11-27T05:53:12;23.95;;;11.65;;
40729;SDS011;26418;50.070;8.436;2022-11-27T05:55:38;29.55;;;12.60;;
40729;SDS011;26418;50.070;8.436;2022-11-27T05:58:04;24.92;;;12.65;;
40729;SDS011;26418;50.070;8.436;2022-11-27T06:00:30;28.17;;;12.82;;
40729;SDS011;26418;50.070;8.436;2022-11-27T06:02:55;26.23;;;12.98;;
40729;SDS011;26418;50.070;8.436;2022-11-27T06:05:21;28.45;;;13.55;;
40729;SDS011;26418;50.070;8.436;2022-11-27T06:07:47;29.67;;;13.48;;
40729;SDS011;26418;50.070;8.436;2022-11-27T06:10:13;25.00;;;11.57;;
40729;SDS011;26418;50.070;8.436;2022-11-27T06:12:38;22.38;;;13.65;;
40729;SDS011;26418;50.070;8.436;2022-11-27T06:15:04;29.30;;;12.75;;
40729;SDS011;26418;50.070;8.436;2022-11-27T06:17:30;26.75;;;13.15;;
40729;SDS011;26418;50.070;8.436;2022-11-27T06:19:55;27.67;;;12.77;;
40729;SDS011;26418;50.070;8.436;2022-11-27T06:22:21;27.98;;;13.73;;
40729;SDS011;26418;50.070;8.436;2022-11-27T06:24:46;24.13;;;12.63;;
40729;SDS011;26418;50.070;8.436;2022-11-27T06:27:12;26.73;;;13.25;;
40729;SDS011;26418;50.070;8.436;2022-11-27T06:29:37;26.42;;;13.32;;
40729;SDS011;26418;50.070;8.436;2022-11-27T06:32:03;27.75;;;13.25;;
40729;SDS011;26418;50.070;8.436;2022-11-27T06:34:29;26.73;;;13.23;;
40729;SDS011;26418;50.070;8.436;2022-11-27T06:36:55;25.58;;;12.38;;
40729;SDS011;26418;50.070;8.436;2022-11-27T06:39:20;26.90;;;13.10;;
40729;SDS011;26418;50.070;8.436;2022-11-27T06:41:46;27.17;;;14.25;;
40729;SDS011;26418;50.070;8.436;2022-11-27T06:44:11;23.52;;;12.27;;
40729;SDS011;26418;50.070;8.436;2022-11-27T06:46:37;26.42;;;14.55;;
40729;SDS011;26418;50.070;8.436;2022-11-27T06:49:03;30.58;;;13.05;;
40729;SDS011;26418;50.070;8.436;2022-11-27T06:51:29;32.05;;;14.30;;
40729;SDS011;26418;50.070;8.436;2022-11-27T06:53:57;26.30;;;12.35;;
40729;SDS011;26418;50.070;8.436;2022-11-27T06:56:24;31.98;;;13.20;;
40729;SDS011;26418;50.070;8.436;2022-11-27T06:58:52;30.20;;;13.10;;
40729;SDS011;26418;50.070;8.436;2022-11-27T07:01:20;28.13;;;13.18;;
40729;SDS011;26418;50.070;8.436;2022-11-27T07:03:47;34.88;;;14.40;;
40729;SDS011;26418;50.070;8.436;2022-11-27T07:06:13;28.15;;;13.80;;
40729;SDS011;26418;50.070;8.436;2022-11-27T07:08:41;31.27;;;13.05;;
40729;SDS011;26418;50.070;8.436;2022-11-27T07:11:09;24.50;;;13.25;;
40729;SDS011;26418;50.070;8.436;2022-11-27T07:13:37;34.17;;;14.15;;
40729;SDS011;26418;50.070;8.436;2022-11-27T07:16:04;32.10;;;13.77;;
40729;SDS011;26418;50.070;8.436;2022-11-27T07:18:53;24.50;;;13.43;;
40729;SDS011;26418;50.070;8.436;2022-11-27T07:21:19;29.67;;;12.63;;
40729;SDS011;26418;50.070;8.436;2022-11-27T07:23:45;29.52;;;13.90;;
40729;SDS011;26418;50.070;8.436;2022-11-27T07:26:12;22.20;;;13.02;;
40729;SDS011;26418;50.070;8.436;2022-11-27T07:28:39;26.63;;;13.50;;
40729;SDS011;26418;50.070;8.436;2022-11-27T07:31:07;30.52;;;13.95;;
40729;SDS011;26418;50.070;8.436;2022-11-27T07:33:33;30.95;;;13.63;;
40729;SDS011;26418;50.070;8.436;2022-11-27T07:36:06;31.77;;;14.30;;
40729;SDS011;26418;50.070;8.436;2022-11-27T07:38:35;31.95;;;13.82;;
40729;SDS011;26418;50.070;8.436;2022-11-27T07:41:01;28.55;;;14.65;;
40729;SDS011;26418;50.070;8.436;2022-11-27T07:43:28;28.05;;;13.13;;
40729;SDS011;26418;50.070;8.436;2022-11-27T07:45:54;28.00;;;13.95;;
40729;SDS011;26418;50.070;8.436;2022-11-27T07:48:20;26.40;;;13.68;;
40729;SDS011;26418;50.070;8.436;2022-11-27T07:50:46;28.50;;;13.95;;
40729;SDS011;26418;50.070;8.436;2022-11-27T07:53:12;24.00;;;13.48;;
40729;SDS011;26418;50.070;8.436;2022-11-27T07:55:38;27.92;;;14.43;;
40729;SDS011;26418;50.070;8.436;2022-11-27T07:58:05;29.65;;;14.57;;
40729;SDS011;26418;50.070;8.436;2022-11-27T08:00:31;22.10;;;12.18;;
40729;SDS011;26418;50.070;8.436;2022-11-27T08:02:58;28.92;;;13.75;;
40729;SDS011;26418;50.070;8.436;2022-11-27T08:05:24;21.17;;;12.68;;
40729;SDS011;26418;50.070;8.436;2022-11-27T08:07:49;25.50;;;13.90;;
40729;SDS011;26418;50.070;8.436;2022-11-27T08:10:15;19.52;;;11.70;;
40729;SDS011;26418;50.070;8.436;2022-11-27T08:12:41;20.80;;;12.10;;
40729;SDS011;26418;50.070;8.436;2022-11-27T08:15:07;22.65;;;14.00;;
40729;SDS011;26418;50.070;8.436;2022-11-27T08:17:33;27.45;;;13.32;;
40729;SDS011;26418;50.070;8.436;2022-11-27T08:19:58;25.42;;;14.80;;
40729;SDS011;26418;50.070;8.436;2022-11-27T08:22:24;21.63;;;11.93;;
40729;SDS011;26418;50.070;8.436;2022-11-27T08:24:50;23.98;;;12.60;;
40729;SDS011;26418;50.070;8.436;2022-11-27T08:27:16;29.20;;;12.48;;
40729;SDS011;26418;50.070;8.436;2022-11-27T08:29:41;22.90;;;12.63;;
40729;SDS011;26418;50.070;8.436;2022-11-27T08:32:07;28.08;;;13.25;;
40729;SDS011;26418;50.070;8.436;2022-11-27T08:34:33;23.38;;;13.02;;
40729;SDS011;26418;50.070;8.436;2022-11-27T08:36:58;21.85;;;11.38;;
40729;SDS011;26418;50.070;8.436;2022-11-27T08:39:24;27.08;;;12.63;;
40729;SDS011;26418;50.070;8.436;2022-11-27T08:41:50;26.00;;;12.27;;
40729;SDS011;26418;50.070;8.436;2022-11-27T08:44:17;24.73;;;11.40;;
40729;SDS011;26418;50.070;8.436;2022-11-27T08:46:42;19.98;;;10.77;;
40729;SDS011;26418;50.070;8.436;2022-11-27T08:49:08;24.60;;;11.93;;
40729;SDS011;26418;50.070;8.436;2022-11-27T08:51:34;22.55;;;12.02;;
40729;SDS011;26418;50.070;8.436;2022-11-27T08:54:00;21.90;;;12.07;;
40729;SDS011;26418;50.070;8.436;2022-11-27T08:56:26;23.80;;;12.60;;
40729;SDS011;26418;50.070;8.436;2022-11-27T08:58:52;23.58;;;11.45;;
40729;SDS011;26418;50.070;8.436;2022-11-27T09:01:19;27.52;;;13.50;;
40729;SDS011;26418;50.070;8.436;2022-11-27T09:03:47;24.35;;;13.73;;
40729;SDS011;26418;50.070;8.436;2022-11-27T09:06:14;27.38;;;14.10;;
40729;SDS011;26418;50.070;8.436;2022-11-27T09:08:41;32.53;;;15.18;;
40729;SDS011;26418;50.070;8.436;2022-11-27T09:11:09;35.65;;;15.55;;
40729;SDS011;26418;50.070;8.436;2022-11-27T09:13:35;33.80;;;16.42;;
40729;SDS011;26418;50.070;8.436;2022-11-27T09:16:04;34.85;;;16.58;;
40729;SDS011;26418;50.070;8.436;2022-11-27T09:18:32;35.13;;;16.52;;
40729;SDS011;26418;50.070;8.436;2022-11-27T09:20:58;38.72;;;17.05;;
40729;SDS011;26418;50.070;8.436;2022-11-27T09:23:25;32.25;;;16.23;;
40729;SDS011;26418;50.070;8.436;2022-11-27T09:25:52;22.88;;;10.57;;
40729;SDS011;26418;50.070;8.436;2022-11-27T09:28:17;33.58;;;13.48;;
40729;SDS011;26418;50.070;8.436;2022-11-27T09:30:43;32.80;;;16.67;;
40729;SDS011;26418;50.070;8.436;2022-11-27T09:33:08;35.95;;;17.00;;
40729;SDS011;26418;50.070;8.436;2022-11-27T09:35:36;35.05;;;16.63;;
40729;SDS011;26418;50.070;8.436;2022-11-27T09:38:02;39.83;;;18.52;;
40729;SDS011;26418;50.070;8.436;2022-11-27T09:40:27;32.90;;;16.77;;
40729;SDS011;26418;50.070;8.436;2022-11-27T09:42:58;31.00;;;15.32;;
40729;SDS011;26418;50.070;8.436;2022-11-27T09:45:28;30.52;;;15.85;;
40729;SDS011;26418;50.070;8.436;2022-11-27T09:47:57;32.17;;;17.42;;
40729;SDS011;26418;50.070;8.436;2022-11-27T09:50:31;38.58;;;17.05;;
40729;SDS011;26418;50.070;8.436;2022-11-27T09:53:22;31.98;;;16.40;;
40729;SDS011;26418;50.070;8.436;2022-11-27T09:56:07;27.77;;;16.08;;
40729;SDS011;26418;50.070;8.436;2022-11-27T09:58:37;27.52;;;13.75;;
40729;SDS011;26418;50.070;8.436;2022-11-27T10:01:12;30.15;;;14.60;;
40729;SDS011;26418;50.070;8.436;2022-11-27T10:03:40;32.78;;;16.35;;
40729;SDS011;26418;50.070;8.436;2022-11-27T10:09:10;31.00;;;15.10;;
40729;SDS011;26418;50.070;8.436;2022-11-27T10:30:31;29.65;;;14.55;;
40729;SDS011;26418;50.070;8.436;2022-11-27T10:33:01;28.70;;;14.20;;
40729;SDS011;26418;50.070;8.436;2022-11-27T10:35:32;26.20;;;14.15;;
40729;SDS011;26418;50.070;8.436;2022-11-27T10:38:12;28.33;;;12.75;;
40729;SDS011;26418;50.070;8.436;2022-11-27T10:43:30;21.35;;;12.07;;
40729;SDS011;26418;50.070;8.436;2022-11-27T10:46:19;20.48;;;12.63;;
40729;SDS011;26418;50.070;8.436;2022-11-27T10:48:49;19.83;;;10.73;;
40729;SDS011;26418;50.070;8.436;2022-11-27T10:51:21;22.65;;;11.98;;
40729;SDS011;26418;50.070;8.436;2022-11-27T10:53:53;18.85;;;11.15;;
40729;SDS011;26418;50.070;8.436;2022-11-27T10:59:18;20.40;;;10.98;;
40729;SDS011;26418;50.070;8.436;2022-11-27T11:01:50;18.13;;;11.13;;
40729;SDS011;26418;50.070;8.436;2022-11-27T11:04:25;26.50;;;12.52;;
40729;SDS011;26418;50.070;8.436;2022-11-27T11:06:53;20.67;;;11.77;;
40729;SDS011;26418;50.070;8.436;2022-11-27T11:11:53;27.95;;;12.90;;
40729;SDS011;26418;50.070;8.436;2022-11-27T11:14:30;27.20;;;15.07;;
40729;SDS011;26418;50.070;8.436;2022-11-27T11:16:55;25.23;;;14.60;;
40729;SDS011;26418;50.070;8.436;2022-11-27T11:19:22;36.90;;;15.00;;
40729;SDS011;26418;50.070;8.436;2022-11-27T11:21:50;22.92;;;13.38;;
40729;SDS011;26418;50.070;8.436;2022-11-27T11:24:24;22.77;;;12.63;;
40729;SDS011;26418;50.070;8.436;2022-11-27T11:26:53;25.95;;;13.50;;
40729;SDS011;26418;50.070;8.436;2022-11-27T11:29:32;20.23;;;11.95;;
40729;SDS011;26418;50.070;8.436;2022-11-27T11:32:10;18.88;;;11.38;;
40729;SDS011;26418;50.070;8.436;2022-11-27T11:34:40;29.02;;;13.15;;
40729;SDS011;26418;50.070;8.436;2022-11-27T11:37:17;24.77;;;14.23;;
40729;SDS011;26418;50.070;8.436;2022-11-27T11:39:51;23.05;;;12.30;;
40729;SDS011;26418;50.070;8.436;2022-11-27T11:42:30;25.15;;;12.88;;
40729;SDS011;26418;50.070;8.436;2022-11-27T11:45:02;21.05;;;12.90;;
40729;SDS011;26418;50.070;8.436;2022-11-27T11:47:30;21.10;;;12.25;;
40729;SDS011;26418;50.070;8.436;2022-11-27T11:49:55;23.83;;;13.30;;
40729;SDS011;26418;50.070;8.436;2022-11-27T11:55:26;21.90;;;12.15;;
40729;SDS011;26418;50.070;8.436;2022-11-27T12:01:03;15.77;;;10.65;;
40729;SDS011;26418;50.070;8.436;2022-11-27T12:09:42;19.25;;;11.63;;
40729;SDS011;26418;50.070;8.436;2022-11-27T12:14:57;21.60;;;11.90;;
40729;SDS011;26418;50.070;8.436;2022-11-27T12:17:54;18.63;;;10.80;;
40729;SDS011;26418;50.070;8.436;2022-11-27T12:23:32;22.02;;;12.52;;
40729;SDS011;26418;50.070;8.436;2022-11-27T12:28:52;18.25;;;10.38;;
40729;SDS011;26418;50.070;8.436;2022-11-27T12:31:57;20.88;;;11.20;;
40729;SDS011;26418;50.070;8.436;2022-11-27T12:34:35;14.65;;;9.85;;
40729;SDS011;26418;50.070;8.436;2022-11-27T12:39:54;15.50;;;9.02;;
40729;SDS011;26418;50.070;8.436;2022-11-27T12:42:26;17.55;;;9.18;;
40729;SDS011;26418;50.070;8.436;2022-11-27T12:45:05;14.40;;;8.80;;
40729;SDS011;26418;50.070;8.436;2022-11-27T12:47:43;13.82;;;8.82;;
40729;SDS011;26418;50.070;8.436;2022-11-27T12:52:46;12.82;;;8.10;;
40729;SDS011;26418;50.070;8.436;2022-11-27T12:55:23;15.50;;;8.88;;
40729;SDS011;26418;50.070;8.436;2022-11-27T12:57:56;16.50;;;8.13;;
40729;SDS011;26418;50.070;8.436;2022-11-27T13:00:24;13.68;;;8.02;;
40729;SDS011;26418;50.070;8.436;2022-11-27T13:03:03;14.00;;;7.30;;
40729;SDS011;26418;50.070;8.436;2022-11-27T13:05:56;17.20;;;8.60;;
40729;SDS011;26418;50.070;8.436;2022-11-27T13:08:29;13.70;;;7.50;;
40729;SDS011;26418;50.070;8.436;2022-11-27T13:11:11;15.85;;;7.35;;
40729;SDS011;26418;50.070;8.436;2022-11-27T13:13:39;11.75;;;7.78;;
40729;SDS011;26418;50.070;8.436;2022-11-27T13:16:12;13.63;;;7.90;;
40729;SDS011;26418;50.070;8.436;2022-11-27T13:19:26;12.63;;;6.60;;
40729;SDS011;26418;50.070;8.436;2022-11-27T13:21:41;11.57;;;7.32;;
40729;SDS011;26418;50.070;8.436;2022-11-27T13:24:10;9.98;;;6.88;;
40729;SDS011;26418;50.070;8.436;2022-11-27T13:29:42;15.52;;;9.98;;
40729;SDS011;26418;50.070;8.436;2022-11-27T13:32:24;14.02;;;9.18;;
40729;SDS011;26418;50.070;8.436;2022-11-27T13:34:56;13.50;;;8.10;;
40729;SDS011;26418;50.070;8.436;2022-11-27T13:42:46;14.63;;;9.10;;
40729;SDS011;26418;50.070;8.436;2022-11-27T13:45:21;11.35;;;7.55;;
40729;SDS011;26418;50.070;8.436;2022-11-27T13:47:49;12.48;;;7.15;;
40729;SDS011;26418;50.070;8.436;2022-11-27T13:50:17;11.98;;;7.35;;
40729;SDS011;26418;50.070;8.436;2022-11-27T13:53:04;17.63;;;7.75;;
40729;SDS011;26418;50.070;8.436;2022-11-27T13:55:32;13.27;;;8.32;;
40729;SDS011;26418;50.070;8.436;2022-11-27T13:58:00;10.95;;;7.38;;
40729;SDS011;26418;50.070;8.436;2022-11-27T14:00:43;11.98;;;7.53;;
40729;SDS011;26418;50.070;8.436;2022-11-27T14:03:26;10.95;;;8.27;;
40729;SDS011;26418;50.070;8.436;2022-11-27T14:05:53;18.23;;;11.55;;
40729;SDS011;26418;50.070;8.436;2022-11-27T14:08:30;21.90;;;12.23;;
40729;SDS011;26418;50.070;8.436;2022-11-27T14:11:01;16.88;;;11.00;;
40729;SDS011;26418;50.070;8.436;2022-11-27T14:13:34;18.45;;;10.68;;
40729;SDS011;26418;50.070;8.436;2022-11-27T14:16:25;16.38;;;9.88;;
40729;SDS011;26418;50.070;8.436;2022-11-27T14:19:19;17.42;;;9.73;;
40729;SDS011;26418;50.070;8.436;2022-11-27T14:21:48;25.92;;;12.65;;
40729;SDS011;26418;50.070;8.436;2022-11-27T14:24:34;18.40;;;11.55;;
40729;SDS011;26418;50.070;8.436;2022-11-27T14:27:21;20.08;;;11.57;;
40729;SDS011;26418;50.070;8.436;2022-11-27T14:29:48;21.27;;;12.50;;
40729;SDS011;26418;50.070;8.436;2022-11-27T14:32:14;24.45;;;12.63;;
40729;SDS011;26418;50.070;8.436;2022-11-27T14:34:42;21.23;;;11.20;;
40729;SDS011;26418;50.070;8.436;2022-11-27T14:37:21;22.08;;;12.32;;
40729;SDS011;26418;50.070;8.436;2022-11-27T14:39:51;20.00;;;12.07;;
40729;SDS011;26418;50.070;8.436;2022-11-27T14:44:45;33.08;;;15.65;;
40729;SDS011;26418;50.070;8.436;2022-11-27T14:47:16;22.20;;;11.60;;
40729;SDS011;26418;50.070;8.436;2022-11-27T14:49:44;21.48;;;11.80;;
40729;SDS011;26418;50.070;8.436;2022-11-27T14:52:12;23.90;;;12.43;;
40729;SDS011;26418;50.070;8.436;2022-11-27T14:54:41;31.10;;;15.98;;
40729;SDS011;26418;50.070;8.436;2022-11-27T14:57:18;16.48;;;10.63;;
40729;SDS011;26418;50.070;8.436;2022-11-27T14:59:47;21.85;;;14.02;;
40729;SDS011;26418;50.070;8.436;2022-11-27T15:02:16;20.15;;;13.13;;
40729;SDS011;26418;50.070;8.436;2022-11-27T15:04:43;16.70;;;11.38;;
40729;SDS011;26418;50.070;8.436;2022-11-27T15:07:14;19.20;;;11.02;;
40729;SDS011;26418;50.070;8.436;2022-11-27T15:09:57;22.60;;;12.55;;
40729;SDS011;26418;50.070;8.436;2022-11-27T15:16:27;18.13;;;11.00;;
40729;SDS011;26418;50.070;8.436;2022-11-27T15:18:53;19.35;;;11.40;;
40729;SDS011;26418;50.070;8.436;2022-11-27T15:21:23;19.73;;;11.48;;
40729;SDS011;26418;50.070;8.436;2022-11-27T15:23:50;19.65;;;11.00;;
40729;SDS011;26418;50.070;8.436;2022-11-27T15:26:36;20.17;;;12.70;;
40729;SDS011;26418;50.070;8.436;2022-11-27T15:32:13;21.35;;;13.40;;
40729;SDS011;26418;50.070;8.436;2022-11-27T15:34:41;34.10;;;16.60;;
40729;SDS011;26418;50.070;8.436;2022-11-27T15:39:52;24.92;;;16.00;;
40729;SDS011;26418;50.070;8.436;2022-11-27T15:42:21;20.52;;;13.05;;
40729;SDS011;26418;50.070;8.436;2022-11-27T15:44:49;29.98;;;16.42;;
40729;SDS011;26418;50.070;8.436;2022-11-27T15:47:22;25.10;;;14.38;;
40729;SDS011;26418;50.070;8.436;2022-11-27T15:49:48;25.40;;;13.88;;
40729;SDS011;26418;50.070;8.436;2022-11-27T15:52:14;26.67;;;13.73;;
40729;SDS011;26418;50.070;8.436;2022-11-27T15:54:39;19.70;;;11.90;;
40729;SDS011;26418;50.070;8.436;2022-11-27T15:57:05;23.38;;;12.45;;
40729;SDS011;26418;50.070;8.436;2022-11-27T15:59:30;18.83;;;10.95;;
40729;SDS011;26418;50.070;8.436;2022-11-27T16:01:56;16.02;;;9.88;;
40729;SDS011;26418;50.070;8.436;2022-11-27T16:04:22;18.30;;;10.60;;
40729;SDS011;26418;50.070;8.436;2022-11-27T16:06:48;17.90;;;10.43;;
40729;SDS011;26418;50.070;8.436;2022-11-27T16:09:14;16.35;;;8.63;;
40729;SDS011;26418;50.070;8.436;2022-11-27T16:11:39;12.55;;;8.13;;
40729;SDS011;26418;50.070;8.436;2022-11-27T16:14:05;12.45;;;8.13;;
40729;SDS011;26418;50.070;8.436;2022-11-27T16:16:31;16.60;;;8.63;;
40729;SDS011;26418;50.070;8.436;2022-11-27T16:18:57;16.23;;;9.70;;